sensor_id;sensor_type;location;lat;lon;timestamp;P1;durP1;ratioP1;P2;durP2;ratioP2
2610;SDS011;5612;51.134;17.058;2023-06-22T00:00:43;21.20;;;19.63;;
2610;SDS011;5612;51.134;17.058;2023-06-22T00:03:11;19.77;;;18.27;;
2610;SDS011;5612;51.134;17.058;2023-06-22T00:05:42;19.23;;;17.83;;
2610;SDS011;5612;51.134;17.058;2023-06-22T00:08:11;18.87;;;17.47;;
2610;SDS011;5612;51.134;17.058;2023-06-22T00:10:40;21.00;;;19.40;;
2610;SDS011;5612;51.134;17.058;2023-06-22T00:13:09;20.40;;;18.77;;
2610;SDS011;5612;51.134;17.058;2023-06-22T00:15:39;20.87;;;19.17;;
2610;SDS011;5612;51.134;17.058;2023-06-22T00:18:09;20.50;;;19.00;;
2610;SDS011;5612;51.134;17.058;2023-06-22T00:20:40;20.57;;;18.97;;
2610;SDS011;5612;51.134;17.058;2023-06-22T00:23:12;20.87;;;19.30;;
2610;SDS011;5612;51.134;17.058;2023-06-22T00:25:42;22.23;;;18.80;;
2610;SDS011;5612;51.134;17.058;2023-06-22T00:28:11;19.90;;;18.37;;
2610;SDS011;5612;51.134;17.058;2023-06-22T00:30:40;20.50;;;19.00;;
2610;SDS011;5612;51.134;17.058;2023-06-22T00:33:09;19.17;;;17.67;;
2610;SDS011;5612;51.134;17.058;2023-06-22T00:35:38;20.57;;;18.73;;
2610;SDS011;5612;51.134;17.058;2023-06-22T00:38:09;19.77;;;18.17;;
2610;SDS011;5612;51.134;17.058;2023-06-22T00:40:38;18.67;;;17.07;;
2610;SDS011;5612;51.134;17.058;2023-06-22T00:43:07;19.27;;;17.87;;
2610;SDS011;5612;51.134;17.058;2023-06-22T00:45:36;19.20;;;17.60;;
2610;SDS011;5612;51.134;17.058;2023-06-22T00:48:06;19.53;;;18.00;;
2610;SDS011;5612;51.134;17.058;2023-06-22T00:50:36;20.70;;;19.00;;
2610;SDS011;5612;51.134;17.058;2023-06-22T00:53:06;21.23;;;19.63;;
2610;SDS011;5612;51.134;17.058;2023-06-22T00:55:41;20.33;;;18.37;;
2610;SDS011;5612;51.134;17.058;2023-06-22T00:58:12;19.70;;;18.30;;
2610;SDS011;5612;51.134;17.058;2023-06-22T01:00:41;19.90;;;18.20;;
2610;SDS011;5612;51.134;17.058;2023-06-22T01:03:10;20.03;;;18.53;;
2610;SDS011;5612;51.134;17.058;2023-06-22T01:05:39;19.97;;;18.47;;
2610;SDS011;5612;51.134;17.058;2023-06-22T01:08:12;19.80;;;18.20;;
2610;SDS011;5612;51.134;17.058;2023-06-22T01:10:52;22.10;;;20.30;;
2610;SDS011;5612;51.134;17.058;2023-06-22T01:13:26;20.27;;;18.33;;
2610;SDS011;5612;51.134;17.058;2023-06-22T01:16:00;20.60;;;19.00;;
2610;SDS011;5612;51.134;17.058;2023-06-22T01:18:31;20.53;;;18.73;;
2610;SDS011;5612;51.134;17.058;2023-06-22T01:21:03;20.50;;;18.90;;
2610;SDS011;5612;51.134;17.058;2023-06-22T01:23:48;20.83;;;19.33;;
2610;SDS011;5612;51.134;17.058;2023-06-22T01:26:32;20.33;;;18.67;;
2610;SDS011;5612;51.134;17.058;2023-06-22T01:29:08;20.30;;;18.70;;
2610;SDS011;5612;51.134;17.058;2023-06-22T01:31:40;19.23;;;17.80;;
2610;SDS011;5612;51.134;17.058;2023-06-22T01:34:10;19.70;;;18.33;;
2610;SDS011;5612;51.134;17.058;2023-06-22T01:36:40;20.30;;;18.50;;
2610;SDS011;5612;51.134;17.058;2023-06-22T01:39:10;20.10;;;18.60;;
2610;SDS011;5612;51.134;17.058;2023-06-22T01:41:42;22.03;;;20.23;;
2610;SDS011;5612;51.134;17.058;2023-06-22T01:44:13;20.43;;;18.83;;
2610;SDS011;5612;51.134;17.058;2023-06-22T01:46:43;18.97;;;17.53;;
2610;SDS011;5612;51.134;17.058;2023-06-22T01:49:13;20.03;;;18.53;;
2610;SDS011;5612;51.134;17.058;2023-06-22T01:51:42;18.70;;;17.40;;
2610;SDS011;5612;51.134;17.058;2023-06-22T01:54:11;19.03;;;17.63;;
2610;SDS011;5612;51.134;17.058;2023-06-22T01:56:40;18.70;;;17.37;;
2610;SDS011;5612;51.134;17.058;2023-06-22T01:59:11;19.87;;;18.27;;
2610;SDS011;5612;51.134;17.058;2023-06-22T02:01:47;22.23;;;20.57;;
2610;SDS011;5612;51.134;17.058;2023-06-22T02:04:23;20.60;;;19.00;;
2610;SDS011;5612;51.134;17.058;2023-06-22T02:06:56;20.67;;;18.97;;
2610;SDS011;5612;51.134;17.058;2023-06-22T02:09:28;21.20;;;19.30;;
2610;SDS011;5612;51.134;17.058;2023-06-22T02:11:59;20.10;;;18.50;;
2610;SDS011;5612;51.134;17.058;2023-06-22T02:14:31;19.80;;;18.30;;
2610;SDS011;5612;51.134;17.058;2023-06-22T02:17:02;18.90;;;17.50;;
2610;SDS011;5612;51.134;17.058;2023-06-22T02:19:35;21.07;;;19.47;;
2610;SDS011;5612;51.134;17.058;2023-06-22T02:22:04;19.10;;;17.60;;
2610;SDS011;5612;51.134;17.058;2023-06-22T02:24:33;20.37;;;18.80;;
2610;SDS011;5612;51.134;17.058;2023-06-22T02:27:02;19.73;;;18.10;;
2610;SDS011;5612;51.134;17.058;2023-06-22T02:29:35;20.80;;;19.20;;
2610;SDS011;5612;51.134;17.058;2023-06-22T02:32:04;21.30;;;19.57;;
2610;SDS011;5612;51.134;17.058;2023-06-22T02:34:34;19.43;;;17.93;;
2610;SDS011;5612;51.134;17.058;2023-06-22T02:37:03;21.20;;;19.40;;
2610;SDS011;5612;51.134;17.058;2023-06-22T02:39:32;20.40;;;18.73;;
2610;SDS011;5612;51.134;17.058;2023-06-22T02:42:01;21.00;;;19.30;;
2610;SDS011;5612;51.134;17.058;2023-06-22T02:44:30;19.97;;;18.53;;
2610;SDS011;5612;51.134;17.058;2023-06-22T02:47:00;20.80;;;19.20;;
2610;SDS011;5612;51.134;17.058;2023-06-22T02:49:29;21.37;;;19.70;;
2610;SDS011;5612;51.134;17.058;2023-06-22T02:51:58;20.27;;;18.57;;
2610;SDS011;5612;51.134;17.058;2023-06-22T02:54:27;21.40;;;19.60;;
2610;SDS011;5612;51.134;17.058;2023-06-22T02:56:56;20.93;;;19.03;;
2610;SDS011;5612;51.134;17.058;2023-06-22T02:59:25;22.93;;;21.13;;
2610;SDS011;5612;51.134;17.058;2023-06-22T03:01:54;21.20;;;19.50;;
2610;SDS011;5612;51.134;17.058;2023-06-22T03:04:24;21.63;;;19.83;;
2610;SDS011;5612;51.134;17.058;2023-06-22T03:06:53;21.80;;;20.20;;
2610;SDS011;5612;51.134;17.058;2023-06-22T03:09:22;23.70;;;21.67;;
2610;SDS011;5612;51.134;17.058;2023-06-22T03:11:50;23.80;;;21.80;;
2610;SDS011;5612;51.134;17.058;2023-06-22T03:14:19;22.63;;;20.87;;
2610;SDS011;5612;51.134;17.058;2023-06-22T03:16:48;23.97;;;22.17;;
2610;SDS011;5612;51.134;17.058;2023-06-22T03:19:17;21.57;;;19.87;;
2610;SDS011;5612;51.134;17.058;2023-06-22T03:21:49;24.40;;;22.40;;
2610;SDS011;5612;51.134;17.058;2023-06-22T03:24:18;24.20;;;22.20;;
2610;SDS011;5612;51.134;17.058;2023-06-22T03:26:47;24.20;;;22.30;;
2610;SDS011;5612;51.134;17.058;2023-06-22T03:29:16;24.13;;;22.10;;
2610;SDS011;5612;51.134;17.058;2023-06-22T03:31:45;23.30;;;21.60;;
2610;SDS011;5612;51.134;17.058;2023-06-22T03:34:14;24.13;;;22.17;;
2610;SDS011;5612;51.134;17.058;2023-06-22T03:36:43;24.43;;;22.50;;
2610;SDS011;5612;51.134;17.058;2023-06-22T03:39:14;23.00;;;21.20;;
2610;SDS011;5612;51.134;17.058;2023-06-22T03:41:43;24.27;;;22.27;;
2610;SDS011;5612;51.134;17.058;2023-06-22T03:44:12;24.60;;;22.50;;
2610;SDS011;5612;51.134;17.058;2023-06-22T03:46:41;23.43;;;21.63;;
2610;SDS011;5612;51.134;17.058;2023-06-22T03:49:09;25.03;;;23.00;;
2610;SDS011;5612;51.134;17.058;2023-06-22T03:51:38;25.00;;;23.00;;
2610;SDS011;5612;51.134;17.058;2023-06-22T03:54:07;22.43;;;20.60;;
2610;SDS011;5612;51.134;17.058;2023-06-22T03:56:37;25.40;;;23.30;;
2610;SDS011;5612;51.134;17.058;2023-06-22T03:59:06;21.93;;;20.33;;
2610;SDS011;5612;51.134;17.058;2023-06-22T04:01:35;23.83;;;21.93;;
2610;SDS011;5612;51.134;17.058;2023-06-22T04:04:05;24.00;;;22.20;;
2610;SDS011;5612;51.134;17.058;2023-06-22T04:06:34;23.77;;;21.97;;
2610;SDS011;5612;51.134;17.058;2023-06-22T04:09:03;24.70;;;22.80;;
2610;SDS011;5612;51.134;17.058;2023-06-22T04:11:32;24.97;;;22.80;;
2610;SDS011;5612;51.134;17.058;2023-06-22T04:14:02;23.43;;;21.63;;
2610;SDS011;5612;51.134;17.058;2023-06-22T04:16:31;22.70;;;20.90;;
2610;SDS011;5612;51.134;17.058;2023-06-22T04:19:00;26.00;;;23.90;;
2610;SDS011;5612;51.134;17.058;2023-06-22T04:21:29;25.27;;;23.40;;
2610;SDS011;5612;51.134;17.058;2023-06-22T04:23:57;23.50;;;21.70;;
2610;SDS011;5612;51.134;17.058;2023-06-22T04:26:26;22.93;;;21.13;;
2610;SDS011;5612;51.134;17.058;2023-06-22T04:28:55;25.77;;;23.77;;
2610;SDS011;5612;51.134;17.058;2023-06-22T04:31:25;24.83;;;22.90;;
2610;SDS011;5612;51.134;17.058;2023-06-22T04:33:59;24.00;;;21.90;;
2610;SDS011;5612;51.134;17.058;2023-06-22T04:36:35;27.30;;;24.83;;
2610;SDS011;5612;51.134;17.058;2023-06-22T04:39:06;26.23;;;24.13;;
2610;SDS011;5612;51.134;17.058;2023-06-22T04:41:36;26.60;;;24.40;;
2610;SDS011;5612;51.134;17.058;2023-06-22T04:44:12;28.43;;;26.10;;
2610;SDS011;5612;51.134;17.058;2023-06-22T04:46:53;28.37;;;25.97;;
2610;SDS011;5612;51.134;17.058;2023-06-22T04:49:27;27.47;;;25.17;;
2610;SDS011;5612;51.134;17.058;2023-06-22T04:51:59;26.90;;;24.80;;
2610;SDS011;5612;51.134;17.058;2023-06-22T04:54:29;28.27;;;26.00;;
2610;SDS011;5612;51.134;17.058;2023-06-22T04:56:59;28.10;;;25.53;;
2610;SDS011;5612;51.134;17.058;2023-06-22T04:59:29;28.57;;;26.27;;
2610;SDS011;5612;51.134;17.058;2023-06-22T05:02:00;28.43;;;26.07;;
2610;SDS011;5612;51.134;17.058;2023-06-22T05:04:30;28.20;;;25.80;;
2610;SDS011;5612;51.134;17.058;2023-06-22T05:07:00;27.90;;;25.50;;
2610;SDS011;5612;51.134;17.058;2023-06-22T05:09:30;27.77;;;25.50;;
2610;SDS011;5612;51.134;17.058;2023-06-22T05:12:00;27.70;;;25.40;;
2610;SDS011;5612;51.134;17.058;2023-06-22T05:14:34;29.37;;;26.67;;
2610;SDS011;5612;51.134;17.058;2023-06-22T05:17:04;29.47;;;27.07;;
2610;SDS011;5612;51.134;17.058;2023-06-22T05:19:42;30.23;;;27.53;;
2610;SDS011;5612;51.134;17.058;2023-06-22T05:22:11;28.57;;;26.27;;
2610;SDS011;5612;51.134;17.058;2023-06-22T05:24:40;28.90;;;26.43;;
2610;SDS011;5612;51.134;17.058;2023-06-22T05:27:09;25.10;;;23.07;;
2610;SDS011;5612;51.134;17.058;2023-06-22T05:29:38;25.90;;;23.60;;
2610;SDS011;5612;51.134;17.058;2023-06-22T05:32:09;26.47;;;24.37;;
2610;SDS011;5612;51.134;17.058;2023-06-22T05:34:38;26.53;;;24.33;;
2610;SDS011;5612;51.134;17.058;2023-06-22T05:37:07;24.80;;;22.70;;
2610;SDS011;5612;51.134;17.058;2023-06-22T05:39:37;20.80;;;19.00;;
2610;SDS011;5612;51.134;17.058;2023-06-22T05:42:07;21.20;;;19.30;;
2610;SDS011;5612;51.134;17.058;2023-06-22T05:44:36;17.60;;;16.27;;
2610;SDS011;5612;51.134;17.058;2023-06-22T05:47:09;17.13;;;15.83;;
2610;SDS011;5612;51.134;17.058;2023-06-22T05:49:38;17.00;;;15.60;;
2610;SDS011;5612;51.134;17.058;2023-06-22T05:52:09;16.40;;;14.90;;
2610;SDS011;5612;51.134;17.058;2023-06-22T05:54:38;15.00;;;13.80;;
2610;SDS011;5612;51.134;17.058;2023-06-22T05:57:08;15.97;;;14.57;;
2610;SDS011;5612;51.134;17.058;2023-06-22T05:59:37;15.70;;;14.50;;
2610;SDS011;5612;51.134;17.058;2023-06-22T06:02:05;15.90;;;14.30;;
2610;SDS011;5612;51.134;17.058;2023-06-22T06:04:36;14.67;;;13.60;;
2610;SDS011;5612;51.134;17.058;2023-06-22T06:07:06;14.40;;;13.20;;
2610;SDS011;5612;51.134;17.058;2023-06-22T06:09:35;15.40;;;14.30;;
2610;SDS011;5612;51.134;17.058;2023-06-22T06:12:04;15.50;;;14.20;;
2610;SDS011;5612;51.134;17.058;2023-06-22T06:14:33;14.90;;;13.47;;
2610;SDS011;5612;51.134;17.058;2023-06-22T06:17:02;14.93;;;13.63;;
2610;SDS011;5612;51.134;17.058;2023-06-22T06:19:32;14.70;;;13.40;;
2610;SDS011;5612;51.134;17.058;2023-06-22T06:22:09;15.80;;;14.53;;
2610;SDS011;5612;51.134;17.058;2023-06-22T06:24:39;15.20;;;14.10;;
2610;SDS011;5612;51.134;17.058;2023-06-22T06:27:07;16.60;;;14.90;;
2610;SDS011;5612;51.134;17.058;2023-06-22T06:29:36;16.90;;;15.60;;
2610;SDS011;5612;51.134;17.058;2023-06-22T06:32:06;15.57;;;14.33;;
2610;SDS011;5612;51.134;17.058;2023-06-22T06:34:36;14.87;;;13.43;;
2610;SDS011;5612;51.134;17.058;2023-06-22T06:37:05;16.17;;;14.77;;
2610;SDS011;5612;51.134;17.058;2023-06-22T06:39:35;16.10;;;14.90;;
2610;SDS011;5612;51.134;17.058;2023-06-22T06:42:04;16.80;;;15.63;;
2610;SDS011;5612;51.134;17.058;2023-06-22T06:44:33;16.57;;;15.30;;
2610;SDS011;5612;51.134;17.058;2023-06-22T06:47:04;17.40;;;15.93;;
2610;SDS011;5612;51.134;17.058;2023-06-22T06:49:33;17.70;;;16.30;;
2610;SDS011;5612;51.134;17.058;2023-06-22T06:52:03;24.20;;;16.20;;
2610;SDS011;5612;51.134;17.058;2023-06-22T06:54:32;17.17;;;15.93;;
2610;SDS011;5612;51.134;17.058;2023-06-22T06:57:03;19.20;;;17.80;;
2610;SDS011;5612;51.134;17.058;2023-06-22T06:59:32;18.80;;;17.40;;
2610;SDS011;5612;51.134;17.058;2023-06-22T07:02:01;16.33;;;15.13;;
2610;SDS011;5612;51.134;17.058;2023-06-22T07:04:31;17.13;;;15.73;;
2610;SDS011;5612;51.134;17.058;2023-06-22T07:07:01;17.93;;;16.33;;
2610;SDS011;5612;51.134;17.058;2023-06-22T07:09:30;19.00;;;17.43;;
2610;SDS011;5612;51.134;17.058;2023-06-22T07:11:59;17.87;;;16.60;;
2610;SDS011;5612;51.134;17.058;2023-06-22T07:14:30;19.37;;;17.97;;
2610;SDS011;5612;51.134;17.058;2023-06-22T07:17:00;15.37;;;14.17;;
2610;SDS011;5612;51.134;17.058;2023-06-22T07:19:29;17.67;;;16.17;;
2610;SDS011;5612;51.134;17.058;2023-06-22T07:21:58;17.97;;;16.47;;
2610;SDS011;5612;51.134;17.058;2023-06-22T07:24:27;16.47;;;15.27;;
2610;SDS011;5612;51.134;17.058;2023-06-22T07:26:56;14.55;;;13.55;;
2610;SDS011;5612;51.134;17.058;2023-06-22T07:29:25;15.30;;;14.15;;
2610;SDS011;5612;51.134;17.058;2023-06-22T07:31:56;14.95;;;13.93;;
2610;SDS011;5612;51.134;17.058;2023-06-22T07:34:25;14.20;;;13.07;;
2610;SDS011;5612;51.134;17.058;2023-06-22T07:36:55;13.75;;;12.88;;
2610;SDS011;5612;51.134;17.058;2023-06-22T07:39:24;14.45;;;13.15;;
2610;SDS011;5612;51.134;17.058;2023-06-22T07:41:53;14.80;;;13.80;;
2610;SDS011;5612;51.134;17.058;2023-06-22T07:44:22;14.48;;;13.13;;
2610;SDS011;5612;51.134;17.058;2023-06-22T07:46:51;14.85;;;13.88;;
2610;SDS011;5612;51.134;17.058;2023-06-22T07:49:23;14.07;;;13.23;;
2610;SDS011;5612;51.134;17.058;2023-06-22T07:51:53;14.52;;;13.50;;
2610;SDS011;5612;51.134;17.058;2023-06-22T07:54:23;13.50;;;12.60;;
2610;SDS011;5612;51.134;17.058;2023-06-22T07:56:52;14.30;;;13.30;;
2610;SDS011;5612;51.134;17.058;2023-06-22T07:59:21;14.10;;;13.20;;
2610;SDS011;5612;51.134;17.058;2023-06-22T08:01:50;14.27;;;13.25;;
2610;SDS011;5612;51.134;17.058;2023-06-22T08:04:21;14.45;;;13.52;;
2610;SDS011;5612;51.134;17.058;2023-06-22T08:06:51;15.50;;;14.50;;
2610;SDS011;5612;51.134;17.058;2023-06-22T08:09:20;14.70;;;13.38;;
2610;SDS011;5612;51.134;17.058;2023-06-22T08:11:49;15.15;;;14.15;;
2610;SDS011;5612;51.134;17.058;2023-06-22T08:14:18;15.35;;;14.35;;
2610;SDS011;5612;51.134;17.058;2023-06-22T08:16:47;15.57;;;14.55;;
2610;SDS011;5612;51.134;17.058;2023-06-22T08:19:16;13.38;;;12.48;;
2610;SDS011;5612;51.134;17.058;2023-06-22T08:21:47;14.15;;;13.25;;
2610;SDS011;5612;51.134;17.058;2023-06-22T08:24:16;14.02;;;13.13;;
2610;SDS011;5612;51.134;17.058;2023-06-22T08:26:45;13.18;;;12.30;;
2610;SDS011;5612;51.134;17.058;2023-06-22T08:29:14;12.70;;;11.82;;
2610;SDS011;5612;51.134;17.058;2023-06-22T08:31:42;11.82;;;11.02;;
2610;SDS011;5612;51.134;17.058;2023-06-22T08:34:11;12.35;;;11.48;;
2610;SDS011;5612;51.134;17.058;2023-06-22T08:36:43;11.20;;;10.55;;
2610;SDS011;5612;51.134;17.058;2023-06-22T08:39:20;11.32;;;10.63;;
2610;SDS011;5612;51.134;17.058;2023-06-22T08:41:49;10.88;;;10.07;;
2610;SDS011;5612;51.134;17.058;2023-06-22T08:44:19;10.85;;;9.95;;
2610;SDS011;5612;51.134;17.058;2023-06-22T08:46:54;11.15;;;10.55;;
2610;SDS011;5612;51.134;17.058;2023-06-22T08:49:23;11.32;;;10.52;;
2610;SDS011;5612;51.134;17.058;2023-06-22T08:51:52;10.73;;;10.02;;
2610;SDS011;5612;51.134;17.058;2023-06-22T08:54:24;11.88;;;11.05;;
2610;SDS011;5612;51.134;17.058;2023-06-22T08:56:53;10.20;;;9.60;;
2610;SDS011;5612;51.134;17.058;2023-06-22T08:59:23;9.77;;;9.07;;
2610;SDS011;5612;51.134;17.058;2023-06-22T09:01:52;10.10;;;9.50;;
2610;SDS011;5612;51.134;17.058;2023-06-22T09:04:24;10.77;;;10.18;;
2610;SDS011;5612;51.134;17.058;2023-06-22T09:06:53;9.65;;;8.98;;
2610;SDS011;5612;51.134;17.058;2023-06-22T09:09:24;10.20;;;9.60;;
2610;SDS011;5612;51.134;17.058;2023-06-22T09:11:53;9.55;;;8.90;;
2610;SDS011;5612;51.134;17.058;2023-06-22T09:14:21;8.95;;;8.45;;
2610;SDS011;5612;51.134;17.058;2023-06-22T09:16:50;8.27;;;7.85;;
2610;SDS011;5612;51.134;17.058;2023-06-22T09:19:18;8.13;;;7.63;;
2610;SDS011;5612;51.134;17.058;2023-06-22T09:21:47;7.78;;;7.38;;
2610;SDS011;5612;51.134;17.058;2023-06-22T09:24:16;8.15;;;7.65;;
2610;SDS011;5612;51.134;17.058;2023-06-22T09:26:46;8.60;;;8.10;;
2610;SDS011;5612;51.134;17.058;2023-06-22T09:29:15;8.60;;;8.18;;
2610;SDS011;5612;51.134;17.058;2023-06-22T09:31:44;7.50;;;7.00;;
2610;SDS011;5612;51.134;17.058;2023-06-22T09:34:13;8.57;;;8.00;;
2610;SDS011;5612;51.134;17.058;2023-06-22T09:36:42;8.07;;;7.68;;
2610;SDS011;5612;51.134;17.058;2023-06-22T09:39:11;8.88;;;8.38;;
2610;SDS011;5612;51.134;17.058;2023-06-22T09:41:40;8.65;;;8.15;;
2610;SDS011;5612;51.134;17.058;2023-06-22T09:44:10;8.35;;;7.95;;
2610;SDS011;5612;51.134;17.058;2023-06-22T09:46:39;8.80;;;8.07;;
2610;SDS011;5612;51.134;17.058;2023-06-22T09:49:07;7.88;;;7.30;;
2610;SDS011;5612;51.134;17.058;2023-06-22T09:51:36;8.10;;;7.70;;
2610;SDS011;5612;51.134;17.058;2023-06-22T09:54:06;8.30;;;7.72;;
2610;SDS011;5612;51.134;17.058;2023-06-22T09:56:35;8.25;;;7.75;;
2610;SDS011;5612;51.134;17.058;2023-06-22T09:59:04;7.95;;;7.47;;
2610;SDS011;5612;51.134;17.058;2023-06-22T10:01:37;7.25;;;6.85;;
2610;SDS011;5612;51.134;17.058;2023-06-22T10:04:06;6.45;;;6.13;;
2610;SDS011;5612;51.134;17.058;2023-06-22T10:06:35;7.95;;;7.55;;
2610;SDS011;5612;51.134;17.058;2023-06-22T10:09:07;7.43;;;7.03;;
2610;SDS011;5612;51.134;17.058;2023-06-22T10:11:36;7.63;;;7.20;;
2610;SDS011;5612;51.134;17.058;2023-06-22T10:14:05;7.80;;;7.43;;
2610;SDS011;5612;51.134;17.058;2023-06-22T10:16:33;8.90;;;8.43;;
2610;SDS011;5612;51.134;17.058;2023-06-22T10:19:05;7.88;;;7.47;;
2610;SDS011;5612;51.134;17.058;2023-06-22T10:21:34;8.13;;;7.72;;
2610;SDS011;5612;51.134;17.058;2023-06-22T10:24:03;8.00;;;7.60;;
2610;SDS011;5612;51.134;17.058;2023-06-22T10:26:33;8.93;;;8.43;;
2610;SDS011;5612;51.134;17.058;2023-06-22T10:29:03;7.78;;;7.20;;
2610;SDS011;5612;51.134;17.058;2023-06-22T10:31:42;8.82;;;8.35;;
2610;SDS011;5612;51.134;17.058;2023-06-22T10:34:13;8.82;;;8.02;;
2610;SDS011;5612;51.134;17.058;2023-06-22T10:36:42;9.02;;;8.48;;
2610;SDS011;5612;51.134;17.058;2023-06-22T10:39:12;7.40;;;7.00;;
2610;SDS011;5612;51.134;17.058;2023-06-22T10:41:42;7.07;;;6.68;;
2610;SDS011;5612;51.134;17.058;2023-06-22T10:44:10;7.40;;;7.00;;
2610;SDS011;5612;51.134;17.058;2023-06-22T10:46:40;7.95;;;7.55;;
2610;SDS011;5612;51.134;17.058;2023-06-22T10:49:10;8.32;;;7.82;;
2610;SDS011;5612;51.134;17.058;2023-06-22T10:51:41;7.82;;;7.43;;
2610;SDS011;5612;51.134;17.058;2023-06-22T10:54:09;8.10;;;7.70;;
2610;SDS011;5612;51.134;17.058;2023-06-22T10:56:40;8.40;;;7.90;;
2610;SDS011;5612;51.134;17.058;2023-06-22T10:59:09;9.65;;;9.13;;
2610;SDS011;5612;51.134;17.058;2023-06-22T11:01:38;9.13;;;8.57;;
2610;SDS011;5612;51.134;17.058;2023-06-22T11:04:07;7.97;;;7.45;;
2610;SDS011;5612;51.134;17.058;2023-06-22T11:06:37;8.18;;;7.78;;
2610;SDS011;5612;51.134;17.058;2023-06-22T11:09:07;7.10;;;6.78;;
2610;SDS011;5612;51.134;17.058;2023-06-22T11:11:51;8.20;;;7.70;;
2610;SDS011;5612;51.134;17.058;2023-06-22T11:14:21;8.40;;;7.72;;
2610;SDS011;5612;51.134;17.058;2023-06-22T11:16:50;7.35;;;6.97;;
2610;SDS011;5612;51.134;17.058;2023-06-22T11:19:19;7.65;;;7.18;;
2610;SDS011;5612;51.134;17.058;2023-06-22T11:21:48;6.55;;;6.25;;
2610;SDS011;5612;51.134;17.058;2023-06-22T11:24:18;7.15;;;6.75;;
2610;SDS011;5612;51.134;17.058;2023-06-22T11:26:47;6.80;;;6.32;;
2610;SDS011;5612;51.134;17.058;2023-06-22T11:29:16;5.40;;;5.15;;
2610;SDS011;5612;51.134;17.058;2023-06-22T11:32:03;6.78;;;6.43;;
2610;SDS011;5612;51.134;17.058;2023-06-22T11:34:33;5.15;;;4.85;;
2610;SDS011;5612;51.134;17.058;2023-06-22T11:37:02;6.10;;;5.80;;
2610;SDS011;5612;51.134;17.058;2023-06-22T11:39:33;6.25;;;5.95;;
2610;SDS011;5612;51.134;17.058;2023-06-22T11:42:08;6.03;;;5.63;;
2610;SDS011;5612;51.134;17.058;2023-06-22T11:44:37;5.93;;;5.68;;
2610;SDS011;5612;51.134;17.058;2023-06-22T11:47:06;6.30;;;6.00;;
2610;SDS011;5612;51.134;17.058;2023-06-22T11:49:35;7.00;;;6.68;;
2610;SDS011;5612;51.134;17.058;2023-06-22T11:52:04;6.35;;;5.93;;
2610;SDS011;5612;51.134;17.058;2023-06-22T11:54:35;6.35;;;6.05;;
2610;SDS011;5612;51.134;17.058;2023-06-22T11:57:05;6.78;;;6.05;;
2610;SDS011;5612;51.134;17.058;2023-06-22T11:59:34;6.70;;;6.32;;
2610;SDS011;5612;51.134;17.058;2023-06-22T12:02:03;6.38;;;5.97;;
2610;SDS011;5612;51.134;17.058;2023-06-22T12:04:35;7.40;;;7.10;;
2610;SDS011;5612;51.134;17.058;2023-06-22T12:07:04;7.35;;;6.85;;
2610;SDS011;5612;51.134;17.058;2023-06-22T12:09:34;7.80;;;7.40;;
2610;SDS011;5612;51.134;17.058;2023-06-22T12:12:03;7.45;;;7.05;;
2610;SDS011;5612;51.134;17.058;2023-06-22T12:14:33;8.30;;;7.90;;
2610;SDS011;5612;51.134;17.058;2023-06-22T12:17:02;8.18;;;7.68;;
2610;SDS011;5612;51.134;17.058;2023-06-22T12:19:31;7.68;;;7.18;;
2610;SDS011;5612;51.134;17.058;2023-06-22T12:22:00;7.78;;;7.28;;
2610;SDS011;5612;51.134;17.058;2023-06-22T12:24:28;7.00;;;6.60;;
2610;SDS011;5612;51.134;17.058;2023-06-22T12:26:59;7.88;;;7.45;;
2610;SDS011;5612;51.134;17.058;2023-06-22T12:29:30;7.05;;;6.60;;
2610;SDS011;5612;51.134;17.058;2023-06-22T12:31:58;6.10;;;5.80;;
2610;SDS011;5612;51.134;17.058;2023-06-22T12:34:28;7.30;;;6.70;;
2610;SDS011;5612;51.134;17.058;2023-06-22T12:36:57;7.20;;;6.80;;
2610;SDS011;5612;51.134;17.058;2023-06-22T12:39:26;6.75;;;6.35;;
2610;SDS011;5612;51.134;17.058;2023-06-22T12:41:55;6.97;;;6.57;;
2610;SDS011;5612;51.134;17.058;2023-06-22T12:44:25;6.65;;;6.25;;
2610;SDS011;5612;51.134;17.058;2023-06-22T12:46:54;7.70;;;7.20;;
2610;SDS011;5612;51.134;17.058;2023-06-22T12:49:22;6.93;;;6.53;;
2610;SDS011;5612;51.134;17.058;2023-06-22T12:51:51;6.30;;;6.00;;
2610;SDS011;5612;51.134;17.058;2023-06-22T12:54:20;7.10;;;6.70;;
2610;SDS011;5612;51.134;17.058;2023-06-22T12:56:49;6.65;;;6.25;;
2610;SDS011;5612;51.134;17.058;2023-06-22T12:59:19;7.15;;;6.75;;
2610;SDS011;5612;51.134;17.058;2023-06-22T13:01:49;7.13;;;6.63;;
2610;SDS011;5612;51.134;17.058;2023-06-22T13:04:18;6.57;;;6.28;;
2610;SDS011;5612;51.134;17.058;2023-06-22T13:06:47;7.20;;;6.63;;
2610;SDS011;5612;51.134;17.058;2023-06-22T13:09:18;6.80;;;6.50;;
2610;SDS011;5612;51.134;17.058;2023-06-22T13:11:47;7.50;;;6.90;;
2610;SDS011;5612;51.134;17.058;2023-06-22T13:14:16;6.93;;;6.55;;
2610;SDS011;5612;51.134;17.058;2023-06-22T13:16:45;7.13;;;6.72;;
2610;SDS011;5612;51.134;17.058;2023-06-22T13:19:15;6.93;;;6.55;;
2610;SDS011;5612;51.134;17.058;2023-06-22T13:21:44;6.40;;;6.10;;
2610;SDS011;5612;51.134;17.058;2023-06-22T13:24:13;6.55;;;6.20;;
2610;SDS011;5612;51.134;17.058;2023-06-22T13:26:43;7.57;;;6.85;;
2610;SDS011;5612;51.134;17.058;2023-06-22T13:29:13;6.35;;;6.05;;
2610;SDS011;5612;51.134;17.058;2023-06-22T13:31:41;7.22;;;6.72;;
2610;SDS011;5612;51.134;17.058;2023-06-22T13:34:10;7.35;;;6.85;;
2610;SDS011;5612;51.134;17.058;2023-06-22T13:36:41;6.78;;;6.38;;
2610;SDS011;5612;51.134;17.058;2023-06-22T13:39:09;7.07;;;6.68;;
2610;SDS011;5612;51.134;17.058;2023-06-22T13:41:38;6.57;;;6.18;;
2610;SDS011;5612;51.134;17.058;2023-06-22T13:44:07;6.40;;;6.10;;
2610;SDS011;5612;51.134;17.058;2023-06-22T13:46:36;6.22;;;5.85;;
2610;SDS011;5612;51.134;17.058;2023-06-22T13:49:05;6.60;;;6.25;;
2610;SDS011;5612;51.134;17.058;2023-06-22T13:51:33;6.93;;;6.53;;
2610;SDS011;5612;51.134;17.058;2023-06-22T13:54:04;6.35;;;6.05;;
2610;SDS011;5612;51.134;17.058;2023-06-22T13:56:53;6.75;;;6.22;;
2610;SDS011;5612;51.134;17.058;2023-06-22T13:59:22;7.00;;;6.60;;
2610;SDS011;5612;51.134;17.058;2023-06-22T14:01:53;6.75;;;6.35;;
2610;SDS011;5612;51.134;17.058;2023-06-22T14:04:23;6.88;;;6.47;;
2610;SDS011;5612;51.134;17.058;2023-06-22T14:06:52;6.82;;;6.43;;
2610;SDS011;5612;51.134;17.058;2023-06-22T14:09:24;6.65;;;6.35;;
2610;SDS011;5612;51.134;17.058;2023-06-22T14:11:53;6.97;;;6.57;;
2610;SDS011;5612;51.134;17.058;2023-06-22T14:14:22;7.10;;;6.70;;
2610;SDS011;5612;51.134;17.058;2023-06-22T14:16:51;6.65;;;6.25;;
2610;SDS011;5612;51.134;17.058;2023-06-22T14:19:20;6.63;;;6.22;;
2610;SDS011;5612;51.134;17.058;2023-06-22T14:21:49;6.05;;;5.55;;
2610;SDS011;5612;51.134;17.058;2023-06-22T14:24:18;7.18;;;6.68;;
2610;SDS011;5612;51.134;17.058;2023-06-22T14:26:53;6.05;;;5.60;;
2610;SDS011;5612;51.134;17.058;2023-06-22T14:29:22;6.93;;;6.45;;
2610;SDS011;5612;51.134;17.058;2023-06-22T14:31:51;6.40;;;6.07;;
2610;SDS011;5612;51.134;17.058;2023-06-22T14:34:20;6.68;;;6.28;;
2610;SDS011;5612;51.134;17.058;2023-06-22T14:36:50;6.22;;;5.82;;
2610;SDS011;5612;51.134;17.058;2023-06-22T14:39:23;6.40;;;5.97;;
2610;SDS011;5612;51.134;17.058;2023-06-22T14:41:54;6.18;;;5.82;;
2610;SDS011;5612;51.134;17.058;2023-06-22T14:44:35;6.38;;;5.88;;
2610;SDS011;5612;51.134;17.058;2023-06-22T14:47:05;6.00;;;5.70;;
2610;SDS011;5612;51.134;17.058;2023-06-22T14:49:35;6.40;;;6.03;;
2610;SDS011;5612;51.134;17.058;2023-06-22T14:52:05;7.32;;;6.82;;
2610;SDS011;5612;51.134;17.058;2023-06-22T14:54:44;6.57;;;6.07;;
2610;SDS011;5612;51.134;17.058;2023-06-22T14:57:15;6.45;;;6.05;;
2610;SDS011;5612;51.134;17.058;2023-06-22T14:59:47;6.68;;;6.28;;
2610;SDS011;5612;51.134;17.058;2023-06-22T15:02:17;7.57;;;7.07;;